createdAt,value
2023-04-30T00:00:49.837Z,5.21
2023-04-30T00:03:16.554Z,5.23
2023-04-30T00:05:43.241Z,5.24
2023-04-30T00:08:09.942Z,5.24
2023-04-30T00:10:36.665Z,5.24
2023-04-30T00:13:03.411Z,5.21
2023-04-30T00:15:30.176Z,5.18
2023-04-30T00:17:56.877Z,5.15
2023-04-30T00:20:23.576Z,5.12
2023-04-30T00:22:50.382Z,5.06
2023-04-30T00:25:17.450Z,4.99
2023-04-30T00:27:44.125Z,4.90
2023-04-30T00:30:11.556Z,4.83
2023-04-30T00:32:38.305Z,4.79
2023-04-30T00:35:05.824Z,4.77
2023-04-30T00:37:33.104Z,4.72
2023-04-30T00:39:59.843Z,4.69
2023-04-30T00:42:26.559Z,4.66
2023-04-30T00:44:53.539Z,4.64
2023-04-30T00:47:20.412Z,4.62
2023-04-30T00:49:47.225Z,4.61
2023-04-30T00:52:14.107Z,4.60
2023-04-30T00:54:41.727Z,4.56
2023-04-30T00:57:08.505Z,4.55
2023-04-30T00:59:35.170Z,4.53
2023-04-30T01:02:03.438Z,4.53
2023-04-30T01:04:30.393Z,4.51
2023-04-30T01:06:57.136Z,4.50
2023-04-30T01:09:23.813Z,4.50
2023-04-30T01:11:53.693Z,4.47
2023-04-30T01:14:25.622Z,4.42
2023-04-30T01:17:04.742Z,4.36
2023-04-30T01:19:46.912Z,4.30
2023-04-30T01:22:26.103Z,4.26
2023-04-30T01:25:02.313Z,4.21
2023-04-30T01:27:53.035Z,4.16
2023-04-30T01:30:19.949Z,4.14
2023-04-30T01:32:47.856Z,4.15
2023-04-30T01:35:14.705Z,4.17
2023-04-30T01:38:07.247Z,4.19
2023-04-30T01:40:41.763Z,4.21
2023-04-30T01:43:33.688Z,4.21
2023-04-30T01:46:00.667Z,4.19
2023-04-30T01:48:41.238Z,4.16
2023-04-30T01:51:36.064Z,4.14
2023-04-30T01:54:05.959Z,4.12
2023-04-30T01:56:38.121Z,4.10
2023-04-30T01:59:05.453Z,4.07
2023-04-30T02:01:32.725Z,4.04
2023-04-30T02:03:59.754Z,3.99
2023-04-30T02:06:30.335Z,3.93
2023-04-30T02:09:03.190Z,3.85
2023-04-30T02:11:30.564Z,3.78
2023-04-30T02:13:57.294Z,3.74
2023-04-30T02:16:24.480Z,3.70
2023-04-30T02:18:51.619Z,3.70
2023-04-30T02:21:18.580Z,3.72
2023-04-30T02:23:45.432Z,3.75
2023-04-30T02:26:12.114Z,3.76
2023-04-30T02:28:38.743Z,3.76
2023-04-30T02:31:05.997Z,3.74
2023-04-30T02:33:32.899Z,3.72
2023-04-30T02:35:59.931Z,3.68
2023-04-30T02:38:26.841Z,3.66
2023-04-30T02:40:53.550Z,3.66
2023-04-30T02:43:20.264Z,3.63
2023-04-30T02:45:47.102Z,3.58
2023-04-30T02:48:15.069Z,3.53
2023-04-30T02:50:41.714Z,3.46
2023-04-30T02:53:08.407Z,3.39
2023-04-30T02:55:35.141Z,3.34
2023-04-30T02:58:01.832Z,3.30
2023-04-30T03:00:28.589Z,3.26
2023-04-30T03:02:55.631Z,3.24
2023-04-30T03:05:23.238Z,3.24
2023-04-30T03:07:49.927Z,3.26
2023-04-30T03:10:19.149Z,3.29
2023-04-30T03:12:46.276Z,3.30
2023-04-30T03:15:13.027Z,3.30
2023-04-30T03:17:39.915Z,3.30
2023-04-30T03:20:07.656Z,3.31
2023-04-30T03:22:34.346Z,3.34
2023-04-30T03:25:01.164Z,3.39
2023-04-30T03:27:27.841Z,3.42
2023-04-30T03:29:55.013Z,3.45
2023-04-30T03:32:22.125Z,3.49
2023-04-30T03:34:50.245Z,3.51
2023-04-30T03:37:16.976Z,3.55
2023-04-30T03:39:43.738Z,3.57
2023-04-30T03:42:10.396Z,3.57
2023-04-30T03:44:39.008Z,3.57
2023-04-30T03:47:05.986Z,3.56
2023-04-30T03:49:33.097Z,3.54
2023-04-30T03:51:59.804Z,3.55
2023-04-30T03:54:26.491Z,3.57
2023-04-30T03:56:53.392Z,3.60
2023-04-30T03:59:20.163Z,3.63
2023-04-30T04:01:47.019Z,3.68
2023-04-30T04:04:13.922Z,3.71
2023-04-30T04:06:41.093Z,3.77
2023-04-30T04:09:07.887Z,3.86
2023-04-30T04:11:34.723Z,3.93
2023-04-30T04:14:01.772Z,3.99
2023-04-30T04:16:28.612Z,4.04
2023-04-30T04:18:55.576Z,4.11
2023-04-30T04:21:22.817Z,4.19
2023-04-30T04:23:49.774Z,4.28
2023-04-30T04:26:19.675Z,4.37
2023-04-30T04:28:47.844Z,4.46
2023-04-30T04:31:14.953Z,4.56
2023-04-30T04:33:41.617Z,4.66
2023-04-30T04:36:08.723Z,4.76
2023-04-30T04:38:35.652Z,4.85
2023-04-30T04:41:03.175Z,4.92
2023-04-30T04:43:29.921Z,5.01
2023-04-30T04:45:56.754Z,5.10
2023-04-30T04:48:23.640Z,5.20
2023-04-30T04:50:50.710Z,5.29
2023-04-30T04:53:17.470Z,5.41
2023-04-30T04:55:44.137Z,5.53
2023-04-30T04:58:11.026Z,5.65
2023-04-30T05:00:39.249Z,5.77
2023-04-30T05:03:06.066Z,5.89
2023-04-30T05:05:33.056Z,6.03
2023-04-30T05:07:59.729Z,6.16
2023-04-30T05:10:26.375Z,6.29
2023-04-30T05:12:53.101Z,6.43
2023-04-30T05:15:19.879Z,6.56
2023-04-30T05:17:46.625Z,6.68
2023-04-30T05:20:13.814Z,6.78
2023-04-30T05:22:40.519Z,6.88
2023-04-30T05:25:07.756Z,6.97
2023-04-30T05:27:34.564Z,7.06
2023-04-30T05:30:01.438Z,7.14
2023-04-30T05:32:28.399Z,7.23
2023-04-30T05:34:55.736Z,7.32
2023-04-30T05:37:22.970Z,7.40
2023-04-30T05:39:49.610Z,7.49
2023-04-30T05:42:16.314Z,7.58
2023-04-30T05:44:42.972Z,7.70
2023-04-30T05:47:09.816Z,7.81
2023-04-30T05:49:36.552Z,7.93
2023-04-30T05:52:03.780Z,8.05
2023-04-30T05:54:31.228Z,8.15
2023-04-30T05:56:57.984Z,8.26
2023-04-30T05:59:24.699Z,8.34
2023-04-30T06:01:52.026Z,8.43
2023-04-30T06:04:18.846Z,8.52
2023-04-30T06:06:45.967Z,8.60
2023-04-30T06:09:12.850Z,8.67
2023-04-30T06:11:41.658Z,8.73
2023-04-30T06:14:10.222Z,8.79
2023-04-30T06:16:36.991Z,8.83
2023-04-30T06:19:03.758Z,8.88
2023-04-30T06:21:30.880Z,8.93
2023-04-30T06:23:57.640Z,8.99
2023-04-30T06:26:24.365Z,9.04
2023-04-30T06:28:51.074Z,9.08
2023-04-30T06:31:17.839Z,9.14
2023-04-30T06:33:44.633Z,9.18
2023-04-30T06:36:11.292Z,9.22
2023-04-30T06:38:37.952Z,9.26
2023-04-30T06:41:04.732Z,9.29
2023-04-30T06:43:31.391Z,9.33
2023-04-30T06:45:58.168Z,9.38
2023-04-30T06:48:25.012Z,9.42
2023-04-30T06:50:51.823Z,9.47
2023-04-30T06:53:18.571Z,9.54
2023-04-30T06:55:46.800Z,9.60
2023-04-30T06:58:13.700Z,9.66
2023-04-30T07:00:40.587Z,9.69
2023-04-30T07:03:07.310Z,9.71
2023-04-30T07:05:34.092Z,9.72
2023-04-30T07:08:01.519Z,9.73
2023-04-30T07:10:28.229Z,9.75
2023-04-30T07:12:55.330Z,9.77
2023-04-30T07:15:22.055Z,9.81
2023-04-30T07:17:48.820Z,9.84
2023-04-30T07:20:15.858Z,9.86
2023-04-30T07:22:46.321Z,9.90
2023-04-30T07:25:13.596Z,9.95
2023-04-30T07:27:40.906Z,9.97
2023-04-30T07:30:08.985Z,9.99
2023-04-30T07:32:36.401Z,10.03
2023-04-30T07:35:03.882Z,10.07
2023-04-30T07:37:31.192Z,10.11
2023-04-30T07:39:58.919Z,10.16
2023-04-30T07:42:25.582Z,10.18
2023-04-30T07:44:53.065Z,10.20
2023-04-30T07:47:20.005Z,10.21
2023-04-30T07:49:47.408Z,10.21
2023-04-30T07:52:14.452Z,10.22
2023-04-30T07:54:41.250Z,10.21
2023-04-30T07:57:07.949Z,10.23
2023-04-30T07:59:34.596Z,10.25
2023-04-30T08:02:01.722Z,10.29
2023-04-30T08:04:28.633Z,10.31
2023-04-30T08:06:55.708Z,10.32
2023-04-30T08:09:22.417Z,10.32
2023-04-30T08:11:49.083Z,10.34
2023-04-30T08:14:15.813Z,10.35
2023-04-30T08:16:42.610Z,10.36
2023-04-30T08:19:09.313Z,10.37
2023-04-30T08:21:36.143Z,10.39
2023-04-30T08:24:02.894Z,10.42
2023-04-30T08:26:29.616Z,10.44
2023-04-30T08:28:56.409Z,10.47
2023-04-30T08:31:23.177Z,10.48
2023-04-30T08:33:50.012Z,10.50
2023-04-30T08:36:16.642Z,10.52
2023-04-30T08:38:43.321Z,10.53
2023-04-30T08:41:13.816Z,10.53
2023-04-30T08:43:41.138Z,10.51
2023-04-30T08:46:07.956Z,10.50
2023-04-30T08:48:34.774Z,10.51
2023-04-30T08:51:02.525Z,10.51
2023-04-30T08:53:35.399Z,10.53
2023-04-30T08:56:02.113Z,10.53
2023-04-30T08:58:28.799Z,10.56
2023-04-30T09:01:00.363Z,10.59
2023-04-30T09:03:28.577Z,10.64
2023-04-30T09:05:55.528Z,10.67
2023-04-30T09:08:41.789Z,10.70
2023-04-30T09:11:28.563Z,10.75
2023-04-30T09:13:59.954Z,10.77
2023-04-30T09:16:27.758Z,10.77
2023-04-30T09:18:54.770Z,10.79
2023-04-30T09:21:35.058Z,10.84
2023-04-30T09:24:03.202Z,10.90
2023-04-30T09:26:37.546Z,10.93
2023-04-30T09:29:08.309Z,10.97
2023-04-30T09:31:36.615Z,10.99
2023-04-30T09:34:04.296Z,11.01
2023-04-30T09:36:31.903Z,11.05
2023-04-30T09:39:10.968Z,11.12
2023-04-30T09:41:38.230Z,11.17
2023-04-30T09:44:04.923Z,11.21
2023-04-30T09:46:32.732Z,11.26
2023-04-30T09:49:00.574Z,11.33
2023-04-30T09:51:27.431Z,11.41
2023-04-30T09:53:54.522Z,11.49
2023-04-30T09:56:23.302Z,11.57
2023-04-30T10:00:27.552Z,11.64
2023-04-30T10:02:54.496Z,11.62
2023-04-30T10:05:21.295Z,11.62
2023-04-30T10:07:47.955Z,11.62
2023-04-30T10:10:15.055Z,11.65
2023-04-30T10:12:50.017Z,11.70
2023-04-30T10:15:40.128Z,11.79
2023-04-30T10:18:15.200Z,11.85
2023-04-30T10:20:41.947Z,11.89
2023-04-30T10:23:08.689Z,11.91
2023-04-30T10:25:35.425Z,11.93
2023-04-30T10:28:04.467Z,11.97
2023-04-30T10:30:32.079Z,12.04
2023-04-30T10:33:26.381Z,12.13
2023-04-30T10:36:00.491Z,12.20
2023-04-30T10:38:29.025Z,12.16
2023-04-30T10:40:59.615Z,12.13
2023-04-30T10:43:26.525Z,12.14
2023-04-30T10:45:53.916Z,12.13
2023-04-30T10:48:25.636Z,12.16
2023-04-30T10:50:53.711Z,12.17
2023-04-30T10:53:20.965Z,12.13
2023-04-30T10:55:51.135Z,12.05
2023-04-30T10:58:30.741Z,11.98
2023-04-30T11:01:08.687Z,11.95
2023-04-30T11:03:35.997Z,11.95
2023-04-30T11:06:16.125Z,11.97
2023-04-30T11:08:44.329Z,12.00
2023-04-30T11:11:11.271Z,12.03
2023-04-30T11:13:42.350Z,12.07
2023-04-30T11:16:09.512Z,12.09
2023-04-30T11:18:44.924Z,12.09
2023-04-30T11:21:12.070Z,12.11
2023-04-30T11:23:45.175Z,12.11
2023-04-30T11:26:12.002Z,12.09
2023-04-30T11:28:38.815Z,12.07
2023-04-30T11:31:05.600Z,12.10
2023-04-30T11:33:33.493Z,12.16
2023-04-30T11:36:00.978Z,12.21
2023-04-30T11:38:46.013Z,12.23
2023-04-30T11:41:12.910Z,12.28
2023-04-30T11:43:39.603Z,12.31
2023-04-30T11:46:10.864Z,12.34
2023-04-30T11:48:38.798Z,12.36
2023-04-30T11:51:26.903Z,12.37
2023-04-30T11:53:53.759Z,12.39
2023-04-30T11:56:22.026Z,12.39
2023-04-30T11:58:49.437Z,12.44
2023-04-30T12:01:16.249Z,12.52
2023-04-30T12:03:44.209Z,12.62
2023-04-30T12:06:12.508Z,12.74
2023-04-30T12:08:41.444Z,12.81
2023-04-30T12:11:25.468Z,12.84
2023-04-30T12:13:56.629Z,12.89
2023-04-30T12:16:24.501Z,12.93
2023-04-30T12:18:52.860Z,12.95
2023-04-30T12:21:21.781Z,13.01
2023-04-30T12:23:48.441Z,13.12
2023-04-30T12:26:15.101Z,13.18
2023-04-30T12:28:41.961Z,13.16
2023-04-30T12:31:08.725Z,13.10
2023-04-30T12:33:37.330Z,13.04
2023-04-30T12:36:04.178Z,12.95
2023-04-30T12:38:30.950Z,12.90
2023-04-30T12:40:57.764Z,12.87
2023-04-30T12:43:24.546Z,12.83
2023-04-30T12:45:52.827Z,12.85
2023-04-30T12:48:21.115Z,12.87
2023-04-30T12:50:49.281Z,12.87
2023-04-30T12:53:15.994Z,12.83
2023-04-30T12:55:42.654Z,12.81
2023-04-30T12:58:16.744Z,12.80
2023-04-30T13:00:50.746Z,12.78
2023-04-30T13:03:19.241Z,12.76
2023-04-30T13:05:47.400Z,12.74
2023-04-30T13:08:14.452Z,12.73
2023-04-30T13:10:41.365Z,12.75
2023-04-30T13:13:08.115Z,12.77
2023-04-30T13:15:35.228Z,12.78
2023-04-30T13:18:02.135Z,12.79
2023-04-30T13:20:28.966Z,12.77
2023-04-30T13:22:55.811Z,12.75
2023-04-30T13:25:22.818Z,12.74
2023-04-30T13:27:49.490Z,12.72
2023-04-30T13:30:16.252Z,12.73
2023-04-30T13:32:43.270Z,12.74
2023-04-30T13:35:10.361Z,12.75
2023-04-30T13:37:37.624Z,12.74
2023-04-30T13:40:09.651Z,12.74
2023-04-30T13:42:37.359Z,12.74
2023-04-30T13:45:07.626Z,12.75
2023-04-30T13:47:35.488Z,12.76
2023-04-30T13:50:03.190Z,12.76
2023-04-30T13:52:30.139Z,12.78
2023-04-30T13:54:57.404Z,12.81
2023-04-30T13:57:24.605Z,12.80
2023-04-30T13:59:51.582Z,12.79
2023-04-30T14:02:19.101Z,12.79
2023-04-30T14:04:54.940Z,12.79
2023-04-30T14:07:29.479Z,12.77
2023-04-30T14:09:56.449Z,12.78
2023-04-30T14:12:24.602Z,12.81
2023-04-30T14:14:51.456Z,12.83
2023-04-30T14:17:18.203Z,12.83
2023-04-30T14:19:44.969Z,12.83
2023-04-30T14:22:12.026Z,12.82
2023-04-30T14:24:39.066Z,12.82
2023-04-30T14:27:05.881Z,12.84
2023-04-30T14:29:32.569Z,12.85
2023-04-30T14:31:59.308Z,12.86
2023-04-30T14:34:27.167Z,12.87
2023-04-30T14:36:53.880Z,12.87
2023-04-30T14:39:20.542Z,12.89
2023-04-30T14:41:47.224Z,12.92
2023-04-30T14:44:13.868Z,12.93
2023-04-30T14:46:40.935Z,12.96
2023-04-30T14:49:07.764Z,12.94
2023-04-30T14:51:34.547Z,12.91
2023-04-30T14:54:02.258Z,12.91
2023-04-30T14:56:28.925Z,12.93
2023-04-30T14:58:55.696Z,12.92
2023-04-30T15:01:22.505Z,12.87
2023-04-30T15:03:49.462Z,12.83
2023-04-30T15:06:16.539Z,12.82
2023-04-30T15:08:43.741Z,12.85
2023-04-30T15:11:10.849Z,12.84
2023-04-30T15:13:37.579Z,12.82
2023-04-30T15:16:04.981Z,12.82
2023-04-30T15:18:32.302Z,12.81
2023-04-30T15:20:59.312Z,12.82
2023-04-30T15:23:26.081Z,12.84
2023-04-30T15:25:53.190Z,12.87
2023-04-30T15:28:20.704Z,12.90
2023-04-30T15:30:47.552Z,12.92
2023-04-30T15:33:14.487Z,12.92
2023-04-30T15:35:41.875Z,12.90
2023-04-30T15:38:08.725Z,12.89
2023-04-30T15:40:36.157Z,12.85
2023-04-30T15:43:03.032Z,12.80
2023-04-30T15:45:29.881Z,12.76
2023-04-30T15:47:56.647Z,12.73
2023-04-30T15:50:23.535Z,12.69
2023-04-30T15:52:50.228Z,12.66
2023-04-30T15:55:17.052Z,12.62
2023-04-30T15:57:43.763Z,12.58
2023-04-30T16:00:12.809Z,12.55
2023-04-30T16:02:39.595Z,12.54
2023-04-30T16:05:06.601Z,12.50
2023-04-30T16:07:33.319Z,12.47
2023-04-30T16:10:00.599Z,12.44
2023-04-30T16:12:27.759Z,12.41
2023-04-30T16:14:54.506Z,12.37
2023-04-30T16:17:21.522Z,12.32
2023-04-30T16:19:48.445Z,12.28
2023-04-30T16:22:17.174Z,12.23
2023-04-30T16:24:43.826Z,12.18
2023-04-30T16:27:10.500Z,12.12
2023-04-30T16:29:37.229Z,12.08
2023-04-30T16:32:04.121Z,12.05
2023-04-30T16:34:30.946Z,12.01
2023-04-30T16:36:57.614Z,11.98
2023-04-30T16:39:24.275Z,11.95
2023-04-30T16:41:50.950Z,11.93
2023-04-30T16:44:17.610Z,11.91
2023-04-30T16:46:44.352Z,11.87
2023-04-30T16:49:11.038Z,11.85
2023-04-30T16:51:37.714Z,11.83
2023-04-30T16:54:04.412Z,11.80
2023-04-30T16:56:31.096Z,11.78
2023-04-30T16:58:57.763Z,11.76
2023-04-30T17:01:24.497Z,11.73
2023-04-30T17:03:51.560Z,11.70
2023-04-30T17:06:18.310Z,11.67
2023-04-30T17:08:45.055Z,11.64
2023-04-30T17:11:11.722Z,11.61
2023-04-30T17:13:38.779Z,11.59
2023-04-30T17:16:05.944Z,11.56
2023-04-30T17:18:32.758Z,11.54
2023-04-30T17:20:59.385Z,11.51
2023-04-30T17:23:28.550Z,11.47
2023-04-30T17:25:55.752Z,11.43
2023-04-30T17:28:23.002Z,11.39
2023-04-30T17:30:49.986Z,11.34
2023-04-30T17:33:16.820Z,11.29
2023-04-30T17:35:43.669Z,11.24
2023-04-30T17:38:10.446Z,11.19
2023-04-30T17:40:37.201Z,11.13
2023-04-30T17:43:03.898Z,11.07
2023-04-30T17:45:30.621Z,10.99
2023-04-30T17:47:57.356Z,10.92
2023-04-30T17:50:24.074Z,10.87
2023-04-30T17:52:51.360Z,10.80
2023-04-30T17:55:18.096Z,10.74
2023-04-30T17:57:44.748Z,10.67
2023-04-30T18:00:12.213Z,10.59
2023-04-30T18:02:41.939Z,10.52
2023-04-30T18:05:09.072Z,10.45
2023-04-30T18:07:35.715Z,10.39
2023-04-30T18:10:02.507Z,10.32
2023-04-30T18:12:29.204Z,10.23
2023-04-30T18:14:56.047Z,10.14
2023-04-30T18:17:22.715Z,10.06
2023-04-30T18:19:49.835Z,9.98
2023-04-30T18:22:16.520Z,9.90
2023-04-30T18:24:43.211Z,9.82
2023-04-30T18:27:10.233Z,9.74
2023-04-30T18:29:37.203Z,9.64
2023-04-30T18:32:04.136Z,9.57
2023-04-30T18:34:31.404Z,9.51
2023-04-30T18:36:58.091Z,9.46
2023-04-30T18:39:24.808Z,9.38
2023-04-30T18:41:51.541Z,9.30
2023-04-30T18:44:19.206Z,9.24
2023-04-30T18:46:45.923Z,9.20
2023-04-30T18:49:13.703Z,9.15
2023-04-30T18:51:40.381Z,9.11
2023-04-30T18:54:07.065Z,9.06
2023-04-30T18:56:33.858Z,8.99
2023-04-30T18:59:00.500Z,8.93
2023-04-30T19:01:27.473Z,8.88
2023-04-30T19:03:54.414Z,8.83
2023-04-30T19:06:21.251Z,8.79
2023-04-30T19:08:48.124Z,8.75
2023-04-30T19:11:15.150Z,8.70
2023-04-30T19:13:41.904Z,8.61
2023-04-30T19:16:08.745Z,8.54
2023-04-30T19:18:36.510Z,8.46
2023-04-30T19:21:05.397Z,8.40
2023-04-30T19:23:32.539Z,8.35
2023-04-30T19:25:59.728Z,8.31
2023-04-30T19:28:26.476Z,8.28
2023-04-30T19:30:54.489Z,8.25
2023-04-30T19:33:22.237Z,8.20
2023-04-30T19:35:50.007Z,8.13
2023-04-30T19:38:17.457Z,8.08
2023-04-30T19:40:52.091Z,8.04
2023-04-30T19:43:19.199Z,8.01
2023-04-30T19:45:53.341Z,7.97
2023-04-30T19:48:21.287Z,7.93
2023-04-30T19:50:48.182Z,7.84
2023-04-30T19:53:16.244Z,7.76
2023-04-30T19:55:43.569Z,7.69
2023-04-30T19:58:10.572Z,7.66
2023-04-30T20:00:42.222Z,7.62
2023-04-30T20:03:09.195Z,7.55
2023-04-30T20:05:36.324Z,7.49
2023-04-30T20:08:03.798Z,7.44
2023-04-30T20:10:31.346Z,7.38
2023-04-30T20:12:58.034Z,7.34
2023-04-30T20:15:25.145Z,7.32
2023-04-30T20:17:52.245Z,7.30
2023-04-30T20:20:20.172Z,7.26
2023-04-30T20:22:49.818Z,7.24
2023-04-30T20:25:16.496Z,7.23
2023-04-30T20:27:43.789Z,7.20
2023-04-30T20:30:11.683Z,7.20
2023-04-30T20:32:39.217Z,7.21
2023-04-30T20:35:09.709Z,7.23
2023-04-30T20:37:36.636Z,7.22
2023-04-30T20:40:04.072Z,7.22
2023-04-30T20:42:30.795Z,7.20
2023-04-30T20:44:57.504Z,7.17
2023-04-30T20:47:24.224Z,7.15
2023-04-30T20:49:51.247Z,7.12
2023-04-30T20:52:18.703Z,7.08
2023-04-30T20:54:45.560Z,7.06
2023-04-30T20:57:12.204Z,7.04
2023-04-30T20:59:38.932Z,7.01
2023-04-30T21:02:05.823Z,6.99
2023-04-30T21:04:32.497Z,6.97
2023-04-30T21:06:59.236Z,6.92
2023-04-30T21:09:25.939Z,6.84
2023-04-30T21:11:53.299Z,6.76
2023-04-30T21:14:21.314Z,6.71
2023-04-30T21:16:48.476Z,6.67
2023-04-30T21:19:15.171Z,6.63
2023-04-30T21:21:41.996Z,6.62
2023-04-30T21:24:08.971Z,6.61
2023-04-30T21:26:35.680Z,6.61
2023-04-30T21:29:02.986Z,6.61
2023-04-30T21:31:29.873Z,6.58
2023-04-30T21:33:56.745Z,6.52
2023-04-30T21:36:23.510Z,6.49
2023-04-30T21:38:50.176Z,6.47
2023-04-30T21:41:16.964Z,6.39
2023-04-30T21:43:43.942Z,6.34
2023-04-30T21:46:11.171Z,6.31
2023-04-30T21:48:38.486Z,6.30
2023-04-30T21:51:12.711Z,6.28
2023-04-30T21:53:39.477Z,6.24
2023-04-30T21:56:09.889Z,6.20
2023-04-30T21:58:37.231Z,6.16
2023-04-30T22:01:04.678Z,6.09
2023-04-30T22:03:32.121Z,6.03
2023-04-30T22:05:59.116Z,5.98
2023-04-30T22:08:26.025Z,5.93
2023-04-30T22:10:59.681Z,5.90
2023-04-30T22:13:27.322Z,5.89
2023-04-30T22:17:26.444Z,5.88
2023-04-30T22:19:54.399Z,5.87
2023-04-30T22:22:21.499Z,5.86
2023-04-30T22:24:48.132Z,5.83
2023-04-30T22:27:14.831Z,5.82
2023-04-30T22:29:42.490Z,5.81
2023-04-30T22:32:09.689Z,5.76
2023-04-30T22:34:39.493Z,5.70
2023-04-30T22:37:06.851Z,5.59
2023-04-30T22:39:33.552Z,5.47
2023-04-30T22:42:00.204Z,5.39
2023-04-30T22:44:26.902Z,5.32
2023-04-30T22:46:54.052Z,5.29
2023-04-30T22:49:31.030Z,5.26
2023-04-30T22:51:59.212Z,5.23
2023-04-30T22:54:25.949Z,5.23
2023-04-30T22:56:52.623Z,5.25
2023-04-30T22:59:19.338Z,5.28
2023-04-30T23:01:46.228Z,5.30
2023-04-30T23:04:13.791Z,5.35
2023-04-30T23:06:41.515Z,5.39
2023-04-30T23:09:08.719Z,5.43
2023-04-30T23:11:35.662Z,5.45
2023-04-30T23:14:02.621Z,5.47
2023-04-30T23:16:29.491Z,5.50
2023-04-30T23:18:56.817Z,5.51
2023-04-30T23:21:23.887Z,5.49
2023-04-30T23:23:50.823Z,5.47
2023-04-30T23:26:17.640Z,5.45
2023-04-30T23:28:44.396Z,5.45
2023-04-30T23:31:11.066Z,5.43
2023-04-30T23:33:38.146Z,5.40
2023-04-30T23:36:05.288Z,5.35
2023-04-30T23:38:31.984Z,5.30
2023-04-30T23:40:58.652Z,5.27
2023-04-30T23:43:25.405Z,5.24
2023-04-30T23:45:52.497Z,5.24
2023-04-30T23:48:19.415Z,5.26
2023-04-30T23:50:47.209Z,5.27
2023-04-30T23:53:17.210Z,5.31
2023-04-30T23:55:44.149Z,5.33
2023-04-30T23:58:10.867Z,5.35
